sensor_id;sensor_type;location;lat;lon;timestamp;P1;durP1;ratioP1;P2;durP2;ratioP2
21777;SDS011;11050;52.222;20.916;2023-02-22T00:00:24;13.27;;;3.80;;
21777;SDS011;11050;52.222;20.916;2023-02-22T00:05:53;13.73;;;4.30;;
21777;SDS011;11050;52.222;20.916;2023-02-22T00:08:23;15.10;;;4.27;;
21777;SDS011;11050;52.222;20.916;2023-02-22T00:10:55;12.67;;;3.70;;
21777;SDS011;11050;52.222;20.916;2023-02-22T00:13:27;11.53;;;3.60;;
21777;SDS011;11050;52.222;20.916;2023-02-22T00:15:54;13.37;;;3.83;;
21777;SDS011;11050;52.222;20.916;2023-02-22T00:18:24;12.90;;;3.60;;
21777;SDS011;11050;52.222;20.916;2023-02-22T00:20:52;10.40;;;3.63;;
21777;SDS011;11050;52.222;20.916;2023-02-22T00:23:26;12.77;;;3.87;;
21777;SDS011;11050;52.222;20.916;2023-02-22T00:25:54;12.13;;;3.70;;
21777;SDS011;11050;52.222;20.916;2023-02-22T00:28:22;9.80;;;4.00;;
21777;SDS011;11050;52.222;20.916;2023-02-22T00:30:48;9.73;;;3.20;;
21777;SDS011;11050;52.222;20.916;2023-02-22T00:33:15;12.70;;;3.50;;
21777;SDS011;11050;52.222;20.916;2023-02-22T00:35:41;14.10;;;4.03;;
21777;SDS011;11050;52.222;20.916;2023-02-22T00:38:12;14.83;;;3.70;;
21777;SDS011;11050;52.222;20.916;2023-02-22T00:40:41;13.27;;;3.63;;
21777;SDS011;11050;52.222;20.916;2023-02-22T00:43:07;14.37;;;3.60;;
21777;SDS011;11050;52.222;20.916;2023-02-22T00:45:33;12.33;;;3.73;;
21777;SDS011;11050;52.222;20.916;2023-02-22T00:48:01;13.17;;;3.60;;
21777;SDS011;11050;52.222;20.916;2023-02-22T00:50:30;11.73;;;3.70;;
21777;SDS011;11050;52.222;20.916;2023-02-22T00:52:56;14.73;;;4.20;;
21777;SDS011;11050;52.222;20.916;2023-02-22T00:55:27;8.03;;;3.40;;
21777;SDS011;11050;52.222;20.916;2023-02-22T00:57:59;19.23;;;4.10;;
21777;SDS011;11050;52.222;20.916;2023-02-22T01:00:30;16.47;;;4.73;;
21777;SDS011;11050;52.222;20.916;2023-02-22T01:03:01;13.90;;;4.57;;
21777;SDS011;11050;52.222;20.916;2023-02-22T01:05:29;11.33;;;4.40;;
21777;SDS011;11050;52.222;20.916;2023-02-22T01:07:57;12.83;;;4.97;;
21777;SDS011;11050;52.222;20.916;2023-02-22T01:10:25;11.43;;;4.63;;
21777;SDS011;11050;52.222;20.916;2023-02-22T01:12:55;15.73;;;4.43;;
21777;SDS011;11050;52.222;20.916;2023-02-22T01:15:23;11.50;;;3.93;;
21777;SDS011;11050;52.222;20.916;2023-02-22T01:17:53;15.10;;;4.40;;
21777;SDS011;11050;52.222;20.916;2023-02-22T01:20:19;16.23;;;5.30;;
21777;SDS011;11050;52.222;20.916;2023-02-22T01:22:47;14.40;;;4.40;;
21777;SDS011;11050;52.222;20.916;2023-02-22T01:25:16;17.27;;;5.17;;
21777;SDS011;11050;52.222;20.916;2023-02-22T01:27:49;14.83;;;4.50;;
21777;SDS011;11050;52.222;20.916;2023-02-22T01:30:19;14.53;;;4.50;;
21777;SDS011;11050;52.222;20.916;2023-02-22T01:32:49;16.07;;;5.50;;
21777;SDS011;11050;52.222;20.916;2023-02-22T01:35:16;17.20;;;5.83;;
21777;SDS011;11050;52.222;20.916;2023-02-22T01:37:48;14.73;;;4.97;;
21777;SDS011;11050;52.222;20.916;2023-02-22T01:40:16;16.53;;;4.80;;
21777;SDS011;11050;52.222;20.916;2023-02-22T01:42:53;13.90;;;5.37;;
21777;SDS011;11050;52.222;20.916;2023-02-22T01:50:31;15.03;;;4.13;;
21777;SDS011;11050;52.222;20.916;2023-02-22T01:53:04;18.13;;;5.13;;
21777;SDS011;11050;52.222;20.916;2023-02-22T01:55:33;12.57;;;4.97;;
21777;SDS011;11050;52.222;20.916;2023-02-22T01:58:00;11.67;;;4.40;;
21777;SDS011;11050;52.222;20.916;2023-02-22T02:00:28;17.93;;;4.33;;
21777;SDS011;11050;52.222;20.916;2023-02-22T02:02:56;12.97;;;4.67;;
21777;SDS011;11050;52.222;20.916;2023-02-22T02:05:27;13.37;;;5.07;;
21777;SDS011;11050;52.222;20.916;2023-02-22T02:07:57;12.10;;;4.23;;
21777;SDS011;11050;52.222;20.916;2023-02-22T02:10:37;11.50;;;4.27;;
21777;SDS011;11050;52.222;20.916;2023-02-22T02:13:03;13.53;;;4.17;;
21777;SDS011;11050;52.222;20.916;2023-02-22T02:15:30;8.30;;;3.17;;
21777;SDS011;11050;52.222;20.916;2023-02-22T02:18:08;11.67;;;4.13;;
21777;SDS011;11050;52.222;20.916;2023-02-22T02:41:08;10.83;;;3.50;;
21777;SDS011;11050;52.222;20.916;2023-02-22T02:46:50;10.77;;;4.57;;
21777;SDS011;11050;52.222;20.916;2023-02-22T02:49:30;12.73;;;4.00;;
21777;SDS011;11050;52.222;20.916;2023-02-22T02:52:05;8.97;;;3.03;;
21777;SDS011;11050;52.222;20.916;2023-02-22T02:54:36;11.07;;;3.87;;
21777;SDS011;11050;52.222;20.916;2023-02-22T02:57:03;13.07;;;3.80;;
21777;SDS011;11050;52.222;20.916;2023-02-22T02:59:31;13.13;;;4.00;;
21777;SDS011;11050;52.222;20.916;2023-02-22T03:02:09;17.47;;;3.73;;
21777;SDS011;11050;52.222;20.916;2023-02-22T03:10:10;11.03;;;4.80;;
21777;SDS011;11050;52.222;20.916;2023-02-22T03:13:06;11.67;;;3.97;;
21777;SDS011;11050;52.222;20.916;2023-02-22T03:24:29;10.70;;;4.43;;
21777;SDS011;11050;52.222;20.916;2023-02-22T03:27:31;19.03;;;4.93;;
21777;SDS011;11050;52.222;20.916;2023-02-22T03:30:09;13.07;;;4.73;;
21777;SDS011;11050;52.222;20.916;2023-02-22T03:32:57;14.17;;;4.57;;
21777;SDS011;11050;52.222;20.916;2023-02-22T03:35:38;8.63;;;3.80;;
21777;SDS011;11050;52.222;20.916;2023-02-22T03:38:14;11.93;;;4.53;;
21777;SDS011;11050;52.222;20.916;2023-02-22T03:40:45;14.30;;;3.90;;
21777;SDS011;11050;52.222;20.916;2023-02-22T03:43:20;8.27;;;3.37;;
21777;SDS011;11050;52.222;20.916;2023-02-22T03:45:53;8.57;;;3.43;;
21777;SDS011;11050;52.222;20.916;2023-02-22T03:51:33;9.13;;;3.27;;
21777;SDS011;11050;52.222;20.916;2023-02-22T03:53:59;7.77;;;2.97;;
21777;SDS011;11050;52.222;20.916;2023-02-22T03:56:30;9.93;;;3.20;;
21777;SDS011;11050;52.222;20.916;2023-02-22T03:59:04;9.57;;;3.33;;
21777;SDS011;11050;52.222;20.916;2023-02-22T04:01:34;10.80;;;3.67;;
21777;SDS011;11050;52.222;20.916;2023-02-22T04:04:00;10.60;;;3.13;;
21777;SDS011;11050;52.222;20.916;2023-02-22T04:09:25;10.50;;;3.50;;
21777;SDS011;11050;52.222;20.916;2023-02-22T04:11:50;7.63;;;3.30;;
21777;SDS011;11050;52.222;20.916;2023-02-22T04:14:16;8.67;;;3.53;;
21777;SDS011;11050;52.222;20.916;2023-02-22T04:16:42;11.47;;;3.40;;
21777;SDS011;11050;52.222;20.916;2023-02-22T04:19:08;11.73;;;3.40;;
21777;SDS011;11050;52.222;20.916;2023-02-22T04:21:34;8.40;;;3.50;;
21777;SDS011;11050;52.222;20.916;2023-02-22T04:24:00;6.50;;;3.53;;
21777;SDS011;11050;52.222;20.916;2023-02-22T04:26:25;11.23;;;4.00;;
21777;SDS011;11050;52.222;20.916;2023-02-22T04:28:51;6.80;;;3.50;;
21777;SDS011;11050;52.222;20.916;2023-02-22T04:31:17;8.63;;;3.90;;
21777;SDS011;11050;52.222;20.916;2023-02-22T04:33:43;8.00;;;3.90;;
21777;SDS011;11050;52.222;20.916;2023-02-22T04:36:09;8.70;;;3.57;;
21777;SDS011;11050;52.222;20.916;2023-02-22T04:38:35;8.50;;;4.10;;
21777;SDS011;11050;52.222;20.916;2023-02-22T04:41:01;8.60;;;4.07;;
21777;SDS011;11050;52.222;20.916;2023-02-22T04:43:27;10.80;;;3.83;;
21777;SDS011;11050;52.222;20.916;2023-02-22T04:45:52;8.07;;;3.90;;
21777;SDS011;11050;52.222;20.916;2023-02-22T04:48:18;5.10;;;3.20;;
21777;SDS011;11050;52.222;20.916;2023-02-22T04:50:44;7.00;;;3.50;;
21777;SDS011;11050;52.222;20.916;2023-02-22T04:53:11;7.40;;;3.30;;
21777;SDS011;11050;52.222;20.916;2023-02-22T04:55:37;5.77;;;3.00;;
21777;SDS011;11050;52.222;20.916;2023-02-22T04:58:02;5.67;;;3.00;;
21777;SDS011;11050;52.222;20.916;2023-02-22T05:00:28;5.77;;;2.83;;
21777;SDS011;11050;52.222;20.916;2023-02-22T05:02:54;6.33;;;3.10;;
21777;SDS011;11050;52.222;20.916;2023-02-22T05:05:20;5.13;;;2.50;;
21777;SDS011;11050;52.222;20.916;2023-02-22T05:07:49;6.87;;;2.63;;
21777;SDS011;11050;52.222;20.916;2023-02-22T05:10:15;4.83;;;2.40;;
21777;SDS011;11050;52.222;20.916;2023-02-22T05:12:41;3.13;;;2.10;;
21777;SDS011;11050;52.222;20.916;2023-02-22T05:15:07;4.37;;;2.30;;
21777;SDS011;11050;52.222;20.916;2023-02-22T05:17:34;6.23;;;2.60;;
21777;SDS011;11050;52.222;20.916;2023-02-22T05:20:00;4.23;;;2.27;;
21777;SDS011;11050;52.222;20.916;2023-02-22T05:22:28;3.40;;;2.20;;
21777;SDS011;11050;52.222;20.916;2023-02-22T05:24:54;4.67;;;2.30;;
21777;SDS011;11050;52.222;20.916;2023-02-22T05:27:20;3.93;;;2.10;;
21777;SDS011;11050;52.222;20.916;2023-02-22T05:29:47;4.13;;;2.20;;
21777;SDS011;11050;52.222;20.916;2023-02-22T05:32:13;3.63;;;2.13;;
21777;SDS011;11050;52.222;20.916;2023-02-22T05:34:38;4.33;;;2.40;;
21777;SDS011;11050;52.222;20.916;2023-02-22T05:37:04;5.10;;;2.23;;
21777;SDS011;11050;52.222;20.916;2023-02-22T05:39:30;5.63;;;2.30;;
21777;SDS011;11050;52.222;20.916;2023-02-22T05:41:56;5.80;;;2.20;;
21777;SDS011;11050;52.222;20.916;2023-02-22T05:44:23;6.37;;;2.63;;
21777;SDS011;11050;52.222;20.916;2023-02-22T05:46:48;4.90;;;2.53;;
21777;SDS011;11050;52.222;20.916;2023-02-22T05:49:14;6.47;;;2.90;;
21777;SDS011;11050;52.222;20.916;2023-02-22T05:51:40;4.70;;;3.07;;
21777;SDS011;11050;52.222;20.916;2023-02-22T05:54:06;5.43;;;2.87;;
21777;SDS011;11050;52.222;20.916;2023-02-22T05:56:32;4.10;;;2.43;;
21777;SDS011;11050;52.222;20.916;2023-02-22T05:58:58;4.50;;;2.57;;
21777;SDS011;11050;52.222;20.916;2023-02-22T06:01:24;5.17;;;2.30;;
21777;SDS011;11050;52.222;20.916;2023-02-22T06:03:51;3.33;;;2.10;;
21777;SDS011;11050;52.222;20.916;2023-02-22T06:06:17;3.83;;;2.23;;
21777;SDS011;11050;52.222;20.916;2023-02-22T06:08:44;2.67;;;1.70;;
21777;SDS011;11050;52.222;20.916;2023-02-22T06:11:10;3.57;;;2.00;;
21777;SDS011;11050;52.222;20.916;2023-02-22T06:13:37;3.30;;;2.20;;
21777;SDS011;11050;52.222;20.916;2023-02-22T06:16:03;4.10;;;1.73;;
21777;SDS011;11050;52.222;20.916;2023-02-22T06:18:30;3.33;;;2.00;;
21777;SDS011;11050;52.222;20.916;2023-02-22T06:20:57;3.43;;;1.83;;
21777;SDS011;11050;52.222;20.916;2023-02-22T06:23:24;2.63;;;1.83;;
21777;SDS011;11050;52.222;20.916;2023-02-22T06:25:51;3.23;;;2.20;;
21777;SDS011;11050;52.222;20.916;2023-02-22T06:28:17;4.07;;;2.20;;
21777;SDS011;11050;52.222;20.916;2023-02-22T06:30:42;2.83;;;1.93;;
21777;SDS011;11050;52.222;20.916;2023-02-22T06:33:09;3.80;;;2.23;;
21777;SDS011;11050;52.222;20.916;2023-02-22T06:35:35;5.00;;;2.30;;
21777;SDS011;11050;52.222;20.916;2023-02-22T06:38:01;3.23;;;2.10;;
21777;SDS011;11050;52.222;20.916;2023-02-22T06:40:28;2.83;;;1.80;;
21777;SDS011;11050;52.222;20.916;2023-02-22T06:42:54;3.70;;;2.27;;
21777;SDS011;11050;52.222;20.916;2023-02-22T06:45:21;7.30;;;2.50;;
21777;SDS011;11050;52.222;20.916;2023-02-22T06:47:48;10.77;;;3.30;;
21777;SDS011;11050;52.222;20.916;2023-02-22T06:50:29;4.03;;;2.00;;
21777;SDS011;11050;52.222;20.916;2023-02-22T06:52:55;2.73;;;1.80;;
21777;SDS011;11050;52.222;20.916;2023-02-22T06:55:27;3.77;;;1.90;;
21777;SDS011;11050;52.222;20.916;2023-02-22T06:57:55;2.80;;;1.90;;
21777;SDS011;11050;52.222;20.916;2023-02-22T07:00:22;3.17;;;2.13;;
21777;SDS011;11050;52.222;20.916;2023-02-22T07:02:51;2.37;;;1.73;;
21777;SDS011;11050;52.222;20.916;2023-02-22T07:05:19;4.00;;;1.73;;
21777;SDS011;11050;52.222;20.916;2023-02-22T07:07:47;3.00;;;2.10;;
21777;SDS011;11050;52.222;20.916;2023-02-22T07:10:20;3.33;;;1.90;;
21777;SDS011;11050;52.222;20.916;2023-02-22T07:12:52;3.73;;;1.80;;
21777;SDS011;11050;52.222;20.916;2023-02-22T07:15:19;3.77;;;2.10;;
21777;SDS011;11050;52.222;20.916;2023-02-22T07:17:47;3.60;;;2.17;;
21777;SDS011;11050;52.222;20.916;2023-02-22T07:20:14;4.73;;;2.53;;
21777;SDS011;11050;52.222;20.916;2023-02-22T07:22:41;4.83;;;2.03;;
21777;SDS011;11050;52.222;20.916;2023-02-22T07:25:07;3.20;;;2.03;;
21777;SDS011;11050;52.222;20.916;2023-02-22T07:27:35;5.83;;;2.63;;
21777;SDS011;11050;52.222;20.916;2023-02-22T07:30:04;6.57;;;2.40;;
21777;SDS011;11050;52.222;20.916;2023-02-22T07:32:32;3.53;;;2.30;;
21777;SDS011;11050;52.222;20.916;2023-02-22T07:34:58;5.83;;;2.77;;
21777;SDS011;11050;52.222;20.916;2023-02-22T07:37:26;5.93;;;2.80;;
21777;SDS011;11050;52.222;20.916;2023-02-22T07:39:52;4.40;;;2.67;;
21777;SDS011;11050;52.222;20.916;2023-02-22T07:42:18;4.33;;;2.60;;
21777;SDS011;11050;52.222;20.916;2023-02-22T07:44:43;4.10;;;3.03;;
21777;SDS011;11050;52.222;20.916;2023-02-22T07:47:09;4.60;;;3.50;;
21777;SDS011;11050;52.222;20.916;2023-02-22T07:49:36;6.30;;;3.97;;
21777;SDS011;11050;52.222;20.916;2023-02-22T07:52:02;5.60;;;3.63;;
21777;SDS011;11050;52.222;20.916;2023-02-22T07:54:28;4.53;;;3.57;;
21777;SDS011;11050;52.222;20.916;2023-02-22T07:56:53;5.17;;;3.23;;
21777;SDS011;11050;52.222;20.916;2023-02-22T07:59:19;4.97;;;3.13;;
21777;SDS011;11050;52.222;20.916;2023-02-22T08:01:47;5.27;;;3.33;;
21777;SDS011;11050;52.222;20.916;2023-02-22T08:04:14;5.00;;;3.07;;
21777;SDS011;11050;52.222;20.916;2023-02-22T08:06:40;4.57;;;3.03;;
21777;SDS011;11050;52.222;20.916;2023-02-22T08:09:05;7.27;;;3.33;;
21777;SDS011;11050;52.222;20.916;2023-02-22T08:11:31;3.93;;;1.90;;
21777;SDS011;11050;52.222;20.916;2023-02-22T08:13:57;3.40;;;2.20;;
21777;SDS011;11050;52.222;20.916;2023-02-22T08:16:23;4.73;;;2.30;;
21777;SDS011;11050;52.222;20.916;2023-02-22T08:18:48;3.63;;;2.00;;
21777;SDS011;11050;52.222;20.916;2023-02-22T08:21:15;2.87;;;2.03;;
21777;SDS011;11050;52.222;20.916;2023-02-22T08:23:41;2.73;;;1.83;;
21777;SDS011;11050;52.222;20.916;2023-02-22T08:26:07;5.70;;;2.03;;
21777;SDS011;11050;52.222;20.916;2023-02-22T08:28:39;3.20;;;2.07;;
21777;SDS011;11050;52.222;20.916;2023-02-22T08:31:05;3.13;;;2.10;;
21777;SDS011;11050;52.222;20.916;2023-02-22T08:33:32;3.13;;;2.07;;
21777;SDS011;11050;52.222;20.916;2023-02-22T08:35:59;4.07;;;1.90;;
21777;SDS011;11050;52.222;20.916;2023-02-22T08:38:29;2.77;;;1.97;;
21777;SDS011;11050;52.222;20.916;2023-02-22T08:40:57;3.67;;;2.23;;
21777;SDS011;11050;52.222;20.916;2023-02-22T08:43:23;4.80;;;2.40;;
21777;SDS011;11050;52.222;20.916;2023-02-22T08:45:49;4.33;;;2.33;;
21777;SDS011;11050;52.222;20.916;2023-02-22T08:48:17;4.70;;;2.80;;
21777;SDS011;11050;52.222;20.916;2023-02-22T08:50:43;2.87;;;2.00;;
21777;SDS011;11050;52.222;20.916;2023-02-22T08:53:10;5.50;;;2.10;;
21777;SDS011;11050;52.222;20.916;2023-02-22T08:55:40;4.60;;;2.67;;
21777;SDS011;11050;52.222;20.916;2023-02-22T08:58:06;4.03;;;2.63;;
21777;SDS011;11050;52.222;20.916;2023-02-22T09:00:33;7.07;;;2.83;;
21777;SDS011;11050;52.222;20.916;2023-02-22T09:03:00;3.40;;;2.67;;
21777;SDS011;11050;52.222;20.916;2023-02-22T09:05:31;5.03;;;2.87;;
21777;SDS011;11050;52.222;20.916;2023-02-22T09:07:57;4.43;;;2.97;;
21777;SDS011;11050;52.222;20.916;2023-02-22T09:10:24;3.63;;;2.63;;
21777;SDS011;11050;52.222;20.916;2023-02-22T09:12:55;5.13;;;3.00;;
21777;SDS011;11050;52.222;20.916;2023-02-22T09:15:22;5.47;;;3.30;;
21777;SDS011;11050;52.222;20.916;2023-02-22T09:17:49;4.87;;;3.10;;
21777;SDS011;11050;52.222;20.916;2023-02-22T09:20:18;6.33;;;3.43;;
21777;SDS011;11050;52.222;20.916;2023-02-22T09:22:46;5.43;;;3.07;;
21777;SDS011;11050;52.222;20.916;2023-02-22T09:25:14;7.00;;;3.13;;
21777;SDS011;11050;52.222;20.916;2023-02-22T09:27:41;4.90;;;3.00;;
21777;SDS011;11050;52.222;20.916;2023-02-22T09:30:07;4.80;;;3.03;;
21777;SDS011;11050;52.222;20.916;2023-02-22T09:32:41;5.93;;;3.27;;
21777;SDS011;11050;52.222;20.916;2023-02-22T09:35:06;5.67;;;3.47;;
21777;SDS011;11050;52.222;20.916;2023-02-22T09:37:32;4.70;;;2.97;;
21777;SDS011;11050;52.222;20.916;2023-02-22T09:39:58;5.77;;;3.40;;
21777;SDS011;11050;52.222;20.916;2023-02-22T09:42:28;4.30;;;2.93;;
21777;SDS011;11050;52.222;20.916;2023-02-22T09:45:06;6.67;;;3.40;;
21777;SDS011;11050;52.222;20.916;2023-02-22T09:47:51;6.13;;;3.70;;
21777;SDS011;11050;52.222;20.916;2023-02-22T09:50:24;5.57;;;3.20;;
21777;SDS011;11050;52.222;20.916;2023-02-22T09:52:58;4.87;;;3.00;;
21777;SDS011;11050;52.222;20.916;2023-02-22T09:58:19;5.23;;;3.10;;
21777;SDS011;11050;52.222;20.916;2023-02-22T10:00:59;4.67;;;2.90;;
21777;SDS011;11050;52.222;20.916;2023-02-22T10:03:57;5.10;;;2.57;;
21777;SDS011;11050;52.222;20.916;2023-02-22T10:09:42;3.97;;;2.80;;
21777;SDS011;11050;52.222;20.916;2023-02-22T10:17:39;3.60;;;2.27;;
21777;SDS011;11050;52.222;20.916;2023-02-22T10:23:27;4.20;;;2.30;;
21777;SDS011;11050;52.222;20.916;2023-02-22T10:26:07;4.53;;;2.90;;
21777;SDS011;11050;52.222;20.916;2023-02-22T10:31:22;6.93;;;3.50;;
21777;SDS011;11050;52.222;20.916;2023-02-22T10:33:58;6.37;;;3.70;;
21777;SDS011;11050;52.222;20.916;2023-02-22T10:36:30;6.10;;;3.57;;
21777;SDS011;11050;52.222;20.916;2023-02-22T10:38:58;5.87;;;3.73;;
21777;SDS011;11050;52.222;20.916;2023-02-22T10:41:55;8.77;;;3.83;;
21777;SDS011;11050;52.222;20.916;2023-02-22T10:44:30;6.73;;;3.73;;
21777;SDS011;11050;52.222;20.916;2023-02-22T10:47:01;7.40;;;4.10;;
21777;SDS011;11050;52.222;20.916;2023-02-22T10:49:34;6.20;;;3.77;;
21777;SDS011;11050;52.222;20.916;2023-02-22T10:54:59;8.63;;;4.37;;
21777;SDS011;11050;52.222;20.916;2023-02-22T10:57:33;9.83;;;4.60;;
21777;SDS011;11050;52.222;20.916;2023-02-22T11:00:21;7.53;;;4.40;;
21777;SDS011;11050;52.222;20.916;2023-02-22T11:03:18;8.63;;;4.90;;
21777;SDS011;11050;52.222;20.916;2023-02-22T11:05:47;9.03;;;4.93;;
21777;SDS011;11050;52.222;20.916;2023-02-22T11:08:15;8.77;;;4.77;;
21777;SDS011;11050;52.222;20.916;2023-02-22T11:10:41;9.10;;;5.10;;
21777;SDS011;11050;52.222;20.916;2023-02-22T11:13:27;7.90;;;4.60;;
21777;SDS011;11050;52.222;20.916;2023-02-22T11:16:20;7.23;;;4.90;;
21777;SDS011;11050;52.222;20.916;2023-02-22T11:21:58;10.27;;;4.87;;
21777;SDS011;11050;52.222;20.916;2023-02-22T11:24:50;8.37;;;4.70;;
21777;SDS011;11050;52.222;20.916;2023-02-22T11:27:33;7.23;;;4.50;;
21777;SDS011;11050;52.222;20.916;2023-02-22T11:33:19;9.57;;;5.67;;
21777;SDS011;11050;52.222;20.916;2023-02-22T11:38:25;8.23;;;4.93;;
21777;SDS011;11050;52.222;20.916;2023-02-22T11:43:51;8.20;;;5.27;;
21777;SDS011;11050;52.222;20.916;2023-02-22T11:46:21;10.83;;;5.60;;
21777;SDS011;11050;52.222;20.916;2023-02-22T11:51:33;7.77;;;4.53;;
21777;SDS011;11050;52.222;20.916;2023-02-22T11:57:13;8.23;;;4.70;;
21777;SDS011;11050;52.222;20.916;2023-02-22T12:00:03;10.33;;;4.73;;
21777;SDS011;11050;52.222;20.916;2023-02-22T12:11:22;7.40;;;4.80;;
21777;SDS011;11050;52.222;20.916;2023-02-22T12:17:02;8.50;;;4.40;;
21777;SDS011;11050;52.222;20.916;2023-02-22T12:22:24;7.43;;;4.83;;
21777;SDS011;11050;52.222;20.916;2023-02-22T12:27:47;9.17;;;4.97;;
21777;SDS011;11050;52.222;20.916;2023-02-22T12:30:36;8.07;;;5.03;;
21777;SDS011;11050;52.222;20.916;2023-02-22T12:33:10;8.40;;;4.70;;
21777;SDS011;11050;52.222;20.916;2023-02-22T12:35:51;10.23;;;5.23;;
21777;SDS011;11050;52.222;20.916;2023-02-22T12:38:36;6.87;;;4.50;;
21777;SDS011;11050;52.222;20.916;2023-02-22T12:41:19;8.07;;;3.97;;
21777;SDS011;11050;52.222;20.916;2023-02-22T12:51:59;6.57;;;3.97;;
21777;SDS011;11050;52.222;20.916;2023-02-22T12:58:00;9.07;;;3.90;;
21777;SDS011;11050;52.222;20.916;2023-02-22T13:03:36;7.50;;;4.00;;
21777;SDS011;11050;52.222;20.916;2023-02-22T13:12:18;6.27;;;3.70;;
21777;SDS011;11050;52.222;20.916;2023-02-22T13:18:09;8.50;;;4.07;;
21777;SDS011;11050;52.222;20.916;2023-02-22T13:23:25;6.37;;;3.63;;
21777;SDS011;11050;52.222;20.916;2023-02-22T13:29:03;6.17;;;3.50;;
21777;SDS011;11050;52.222;20.916;2023-02-22T13:34:58;6.30;;;3.87;;
21777;SDS011;11050;52.222;20.916;2023-02-22T13:52:52;6.93;;;3.63;;
21777;SDS011;11050;52.222;20.916;2023-02-22T13:55:25;5.10;;;3.20;;
21777;SDS011;11050;52.222;20.916;2023-02-22T13:58:02;5.57;;;3.27;;
21777;SDS011;11050;52.222;20.916;2023-02-22T14:00:48;7.97;;;3.90;;
21777;SDS011;11050;52.222;20.916;2023-02-22T14:03:35;6.67;;;3.40;;
21777;SDS011;11050;52.222;20.916;2023-02-22T14:06:10;7.07;;;3.40;;
21777;SDS011;11050;52.222;20.916;2023-02-22T14:09:08;10.37;;;3.40;;
21777;SDS011;11050;52.222;20.916;2023-02-22T14:11:43;6.37;;;3.50;;
21777;SDS011;11050;52.222;20.916;2023-02-22T14:14:13;8.07;;;3.80;;
21777;SDS011;11050;52.222;20.916;2023-02-22T14:16:41;8.53;;;3.87;;
21777;SDS011;11050;52.222;20.916;2023-02-22T14:19:17;8.80;;;4.43;;
21777;SDS011;11050;52.222;20.916;2023-02-22T14:22:20;7.90;;;4.20;;
21777;SDS011;11050;52.222;20.916;2023-02-22T14:24:52;7.33;;;3.77;;
21777;SDS011;11050;52.222;20.916;2023-02-22T14:27:17;7.07;;;3.73;;
21777;SDS011;11050;52.222;20.916;2023-02-22T14:29:49;7.77;;;3.53;;
21777;SDS011;11050;52.222;20.916;2023-02-22T14:32:19;6.97;;;4.10;;
21777;SDS011;11050;52.222;20.916;2023-02-22T14:34:55;6.90;;;3.43;;
21777;SDS011;11050;52.222;20.916;2023-02-22T14:37:28;8.67;;;3.87;;
21777;SDS011;11050;52.222;20.916;2023-02-22T14:40:10;8.73;;;4.17;;
21777;SDS011;11050;52.222;20.916;2023-02-22T14:42:57;8.43;;;4.00;;
21777;SDS011;11050;52.222;20.916;2023-02-22T14:45:42;6.07;;;3.70;;
21777;SDS011;11050;52.222;20.916;2023-02-22T14:51:18;6.50;;;3.80;;
21777;SDS011;11050;52.222;20.916;2023-02-22T14:56:41;6.30;;;3.53;;
21777;SDS011;11050;52.222;20.916;2023-02-22T14:59:24;6.97;;;3.47;;
21777;SDS011;11050;52.222;20.916;2023-02-22T15:02:10;8.60;;;3.60;;
21777;SDS011;11050;52.222;20.916;2023-02-22T15:04:37;8.53;;;4.50;;
21777;SDS011;11050;52.222;20.916;2023-02-22T15:07:10;8.20;;;4.23;;
21777;SDS011;11050;52.222;20.916;2023-02-22T15:15:33;7.43;;;4.00;;
21777;SDS011;11050;52.222;20.916;2023-02-22T15:21:16;6.87;;;3.90;;
21777;SDS011;11050;52.222;20.916;2023-02-22T15:23:49;5.93;;;3.73;;
21777;SDS011;11050;52.222;20.916;2023-02-22T15:26:21;6.33;;;3.60;;
21777;SDS011;11050;52.222;20.916;2023-02-22T15:29:07;6.03;;;3.70;;
21777;SDS011;11050;52.222;20.916;2023-02-22T15:31:39;4.27;;;2.83;;
21777;SDS011;11050;52.222;20.916;2023-02-22T15:36:50;5.03;;;3.13;;
21777;SDS011;11050;52.222;20.916;2023-02-22T15:39:23;4.67;;;2.80;;
21777;SDS011;11050;52.222;20.916;2023-02-22T15:42:03;4.77;;;3.30;;
21777;SDS011;11050;52.222;20.916;2023-02-22T15:44:49;5.77;;;3.13;;
21777;SDS011;11050;52.222;20.916;2023-02-22T15:47:22;6.00;;;3.00;;
21777;SDS011;11050;52.222;20.916;2023-02-22T15:52:53;4.40;;;3.00;;
21777;SDS011;11050;52.222;20.916;2023-02-22T15:55:39;5.20;;;3.30;;
21777;SDS011;11050;52.222;20.916;2023-02-22T15:58:17;3.90;;;2.47;;
21777;SDS011;11050;52.222;20.916;2023-02-22T16:00:49;5.57;;;3.23;;
21777;SDS011;11050;52.222;20.916;2023-02-22T16:03:23;4.90;;;3.30;;
21777;SDS011;11050;52.222;20.916;2023-02-22T16:05:57;5.97;;;3.23;;
21777;SDS011;11050;52.222;20.916;2023-02-22T16:08:25;4.70;;;3.30;;
21777;SDS011;11050;52.222;20.916;2023-02-22T16:11:07;8.50;;;3.60;;
21777;SDS011;11050;52.222;20.916;2023-02-22T16:13:50;7.30;;;4.17;;
21777;SDS011;11050;52.222;20.916;2023-02-22T16:18:51;6.30;;;3.33;;
21777;SDS011;11050;52.222;20.916;2023-02-22T16:21:18;7.23;;;4.07;;
21777;SDS011;11050;52.222;20.916;2023-02-22T16:23:47;5.77;;;3.23;;
21777;SDS011;11050;52.222;20.916;2023-02-22T16:26:30;5.90;;;3.37;;
21777;SDS011;11050;52.222;20.916;2023-02-22T16:31:35;5.70;;;3.33;;
21777;SDS011;11050;52.222;20.916;2023-02-22T16:34:04;6.53;;;3.40;;
21777;SDS011;11050;52.222;20.916;2023-02-22T16:36:40;5.37;;;3.17;;
21777;SDS011;11050;52.222;20.916;2023-02-22T16:39:22;6.87;;;3.60;;
21777;SDS011;11050;52.222;20.916;2023-02-22T16:41:49;6.57;;;3.23;;
21777;SDS011;11050;52.222;20.916;2023-02-22T16:44:15;6.23;;;3.00;;
21777;SDS011;11050;52.222;20.916;2023-02-22T16:46:41;7.37;;;3.70;;
21777;SDS011;11050;52.222;20.916;2023-02-22T16:49:09;6.77;;;3.43;;
21777;SDS011;11050;52.222;20.916;2023-02-22T16:51:46;4.67;;;3.20;;
21777;SDS011;11050;52.222;20.916;2023-02-22T16:54:22;6.47;;;3.83;;
21777;SDS011;11050;52.222;20.916;2023-02-22T16:57:00;6.63;;;3.37;;
21777;SDS011;11050;52.222;20.916;2023-02-22T16:59:30;9.73;;;4.40;;
21777;SDS011;11050;52.222;20.916;2023-02-22T17:02:03;6.57;;;3.60;;
21777;SDS011;11050;52.222;20.916;2023-02-22T17:04:31;6.67;;;3.67;;
21777;SDS011;11050;52.222;20.916;2023-02-22T17:06:58;6.20;;;3.77;;
21777;SDS011;11050;52.222;20.916;2023-02-22T17:09:24;7.10;;;3.70;;
21777;SDS011;11050;52.222;20.916;2023-02-22T17:11:50;7.13;;;3.80;;
21777;SDS011;11050;52.222;20.916;2023-02-22T17:14:19;6.57;;;3.53;;
21777;SDS011;11050;52.222;20.916;2023-02-22T17:16:49;7.70;;;4.67;;
21777;SDS011;11050;52.222;20.916;2023-02-22T17:19:16;6.83;;;3.67;;
21777;SDS011;11050;52.222;20.916;2023-02-22T17:21:44;6.10;;;3.50;;
21777;SDS011;11050;52.222;20.916;2023-02-22T17:24:11;8.73;;;4.30;;
21777;SDS011;11050;52.222;20.916;2023-02-22T17:26:40;7.07;;;4.00;;
21777;SDS011;11050;52.222;20.916;2023-02-22T17:29:06;7.13;;;3.90;;
21777;SDS011;11050;52.222;20.916;2023-02-22T17:31:32;9.00;;;4.50;;
21777;SDS011;11050;52.222;20.916;2023-02-22T17:34:00;8.97;;;4.17;;
21777;SDS011;11050;52.222;20.916;2023-02-22T17:36:28;7.17;;;4.10;;
21777;SDS011;11050;52.222;20.916;2023-02-22T17:38:56;8.07;;;4.73;;
21777;SDS011;11050;52.222;20.916;2023-02-22T17:41:22;6.00;;;3.60;;
21777;SDS011;11050;52.222;20.916;2023-02-22T17:43:48;7.73;;;4.10;;
21777;SDS011;11050;52.222;20.916;2023-02-22T17:46:15;9.57;;;4.20;;
21777;SDS011;11050;52.222;20.916;2023-02-22T17:48:43;7.43;;;3.77;;
21777;SDS011;11050;52.222;20.916;2023-02-22T17:51:10;8.93;;;4.03;;
21777;SDS011;11050;52.222;20.916;2023-02-22T17:53:36;10.67;;;4.40;;